Manila/Aquino, Philippines

6:16 PM PHT on December 06, 2016 (GMT +0800)
Don Bosco Better Living, Paranaque City | | Change Station

Elev 56 ft 14.49 °N, 121.02 °E | Updated 11 minutes ago

Partly Cloudy
Partly Cloudy
84.4 °F
Feels Like 88 °F
N
6.0
Wind Variable Wind from ENE
Gusts 10.0 mph

Today
High -- | Low -- °F
--% Chance of Precip.
Yesterday
High -- | Low -- °F
Precip. -- in
Pressure 29.83 in
Visibility 6.2 miles
Clouds Few 2500 ft
Heat Index 88 °F
Dew Point 69 °F
Humidity 60%
Rainfall 0.00 in
Snow Depth Not available.
6:07 AM 5:26 PM
Waxing Crescent, 40% visible
METAR RPLL 061000Z 08007KT 050V130 9999 FEW025 30/20 Q1010 NOSIG RMK A2983
Pressure 29.83 in
Visibility 6.2 miles
Clouds Few 2500 ft
Heat Index 88 °F
Dew Point 69 °F
Humidity 60%
Rainfall 0.00 in
Snow Depth Not available.
6:07 AM 5:26 PM
Waxing Crescent, 40% visible
METAR RPLL 061000Z 08007KT 050V130 9999 FEW025 30/20 Q1010 NOSIG RMK A2983

10-Day Weather Forecast

No radar image for this location.
×

Almanac

Astronomy

Dec. 06, 2016 Rise Set
Actual Time
Civil Twilight
Nautical Twilight
Astronomical Twilight
Moon
Length of Visible Light
Length of Day
Tomorrow will be .
, % of the Moon is Illuminated

Today's Extremes

Country Highs Country Lows

Community

WunderPhotos

Upload Photos

1,955,935 photos uploaded!

WunderBlog® & News

Nearby

Air Quality

  Air Quality AQ Index Pollutant
Not available.

Snow Depth

Station Depth Elevation

Earthquake Activity

City Distance Mag. Time & Date
Minimum magnitude displayed is 2.5.

Coastal Water Temperatures

Place Temperature

Stations

Nearby Weather Stations

Station Location Temp. Windchill Dew Point Humidity Wind Precip. Elev Updated Type